Time;durP1;ratioP1;P1;durP2;ratioP2;P2;SDS_P1;SDS_P2;PMS_P1;PMS_P2;Temp;Humidity;BMP_temperature;BMP_pressure;BME280_temperature;BME280_humidity;BME280_pressure;Samples;Min_cycle;Max_cycle;Signal;HPM_P1;HPM_P2
2021/10/19 00:00:06;;;;;;;9.27;6.73;;;9.00;99.90;;;;;;5040545;28;20960;-70
2021/10/19 00:02:31;;;;;;;9.13;6.50;;;9.00;99.90;;;;;;5040671;28;20413;-70
2021/10/19 00:04:57;;;;;;;7.53;6.77;;;9.00;99.90;;;;;;5039199;28;20440;-70
2021/10/19 00:07:23;;;;;;;6.80;6.10;;;8.90;99.90;;;;;;5037321;28;20285;-70
2021/10/19 00:09:48;;;;;;;9.90;7.17;;;8.90;99.90;;;;;;5037931;28;20185;-70
2021/10/19 00:12:14;;;;;;;10.67;7.80;;;8.90;99.90;;;;;;5039557;28;20474;-70
2021/10/19 00:14:40;;;;;;;8.07;6.33;;;8.90;99.90;;;;;;5040759;28;20201;-70
2021/10/19 00:17:05;;;;;;;7.47;6.27;;;8.90;99.90;;;;;;5039048;28;20248;-70
2021/10/19 00:19:31;;;;;;;7.77;6.77;;;8.90;99.90;;;;;;5041153;28;20180;-71
2021/10/19 00:21:57;;;;;;;7.63;6.20;;;8.90;99.90;;;;;;5037426;28;20169;-70
2021/10/19 00:24:24;;;;;;;7.40;6.67;;;8.90;99.90;;;;;;5038820;28;20689;-70
2021/10/19 00:26:50;;;;;;;7.17;6.20;;;8.90;99.90;;;;;;5037871;28;20260;-71
2021/10/19 00:29:15;;;;;;;7.57;6.87;;;8.90;99.90;;;;;;5040395;28;20581;-70
2021/10/19 00:31:41;;;;;;;8.43;6.90;;;8.90;99.90;;;;;;5041274;28;20181;-70
2021/10/19 00:34:06;;;;;;;10.57;6.80;;;8.90;99.90;;;;;;5042552;28;20581;-70
2021/10/19 00:36:32;;;;;;;8.73;6.70;;;8.90;99.90;;;;;;5037580;28;20181;-70
2021/10/19 00:38:58;;;;;;;7.53;6.70;;;8.90;99.90;;;;;;5038371;28;20192;-70
2021/10/19 00:41:23;;;;;;;7.30;6.13;;;8.90;99.90;;;;;;5035959;28;20185;-70
2021/10/19 00:43:50;;;;;;;8.00;6.57;;;8.90;99.90;;;;;;5036403;28;20302;-70
2021/10/19 00:46:16;;;;;;;6.83;6.00;;;9.00;99.90;;;;;;5039457;28;20252;-70
2021/10/19 00:48:46;;;;;;;6.60;5.90;;;8.90;99.90;;;;;;5038882;28;20566;-70
2021/10/19 00:51:12;;;;;;;6.63;6.03;;;9.00;99.90;;;;;;5037583;28;20169;-70
2021/10/19 00:53:37;;;;;;;8.43;7.03;;;9.00;99.90;;;;;;5038410;28;20440;-71
2021/10/19 00:56:06;;;;;;;7.50;6.80;;;9.00;99.90;;;;;;5036465;28;20464;-70
2021/10/19 00:58:31;;;;;;;7.20;6.60;;;9.00;99.90;;;;;;5039222;28;20646;-70
2021/10/19 01:00:57;;;;;;;8.33;6.70;;;9.00;99.90;;;;;;5038179;28;20456;-70
2021/10/19 01:03:23;;;;;;;9.30;7.13;;;9.00;99.90;;;;;;5041237;28;20178;-70
2021/10/19 01:05:49;;;;;;;7.70;6.90;;;9.10;99.90;;;;;;5041725;28;20185;-70
2021/10/19 01:08:14;;;;;;;9.30;8.00;;;9.10;99.90;;;;;;5037383;28;20186;-70
2021/10/19 01:10:43;;;;;;;11.00;8.73;;;9.10;99.90;;;;;;5044802;28;20264;-70
2021/10/19 01:13:09;;;;;;;11.57;8.30;;;9.10;99.90;;;;;;5043974;28;20181;-70
2021/10/19 01:15:34;;;;;;;10.47;7.30;;;9.10;99.90;;;;;;5042283;28;20447;-70
2021/10/19 01:18:00;;;;;;;9.97;8.27;;;9.10;99.90;;;;;;5041851;28;20665;-70
2021/10/19 01:20:32;;;;;;;9.50;7.43;;;9.10;99.90;;;;;;5042484;28;20629;-70
2021/10/19 01:22:59;;;;;;;8.97;8.07;;;9.20;99.90;;;;;;5043300;28;20245;-70
2021/10/19 01:25:28;;;;;;;13.20;9.20;;;9.20;99.90;;;;;;5041190;28;20808;-70
2021/10/19 01:27:57;;;;;;;12.83;8.53;;;9.20;99.90;;;;;;5038915;28;20810;-70
2021/10/19 01:30:24;;;;;;;12.67;8.80;;;9.30;99.90;;;;;;5044659;28;20512;-70
2021/10/19 01:32:49;;;;;;;11.03;8.10;;;9.30;99.90;;;;;;5043439;28;20527;-70
2021/10/19 01:35:16;;;;;;;11.47;9.97;;;9.30;99.90;;;;;;5042297;28;20550;-70
2021/10/19 01:37:42;;;;;;;14.40;9.73;;;9.30;99.90;;;;;;5040565;28;20188;-71
2021/10/19 01:40:14;;;;;;;12.67;9.40;;;9.40;99.90;;;;;;5041448;28;20447;-70
2021/10/19 01:42:39;;;;;;;11.37;9.50;;;9.40;99.90;;;;;;5043508;28;20452;-70
2021/10/19 01:45:12;;;;;;;14.20;10.67;;;9.40;99.90;;;;;;5041152;28;20460;-70
2021/10/19 01:47:38;;;;;;;14.30;9.97;;;9.50;99.90;;;;;;5039047;28;20184;-70
2021/10/19 01:50:05;;;;;;;16.70;11.17;;;9.60;99.90;;;;;;5038731;28;20436;-70
2021/10/19 01:52:30;;;;;;;16.97;11.10;;;9.60;99.90;;;;;;5042482;28;20440;-70
2021/10/19 01:54:56;;;;;;;12.50;10.87;;;9.60;99.90;;;;;;5041112;28;20517;-70
2021/10/19 01:57:23;;;;;;;15.27;10.47;;;9.70;99.90;;;;;;5039442;28;20266;-70
2021/10/19 01:59:49;;;;;;;14.77;10.07;;;9.70;99.90;;;;;;5044099;28;20174;-70
2021/10/19 02:02:15;;;;;;;16.03;11.27;;;9.70;99.90;;;;;;5042747;28;20444;-70
2021/10/19 02:04:40;;;;;;;13.93;10.17;;;9.70;99.90;;;;;;5042618;28;20536;-70
2021/10/19 02:07:06;;;;;;;12.80;9.30;;;9.80;99.90;;;;;;5038636;28;20533;-70
2021/10/19 02:09:32;;;;;;;16.30;10.30;;;9.80;99.90;;;;;;5043917;28;20181;-70
2021/10/19 02:11:57;;;;;;;14.60;11.23;;;9.80;99.90;;;;;;5038836;28;20692;-70
2021/10/19 02:14:23;;;;;;;16.37;12.20;;;9.80;99.90;;;;;;5043176;28;20343;-70
2021/10/19 02:16:49;;;;;;;20.80;11.57;;;9.80;99.90;;;;;;5039179;28;20177;-70
2021/10/19 02:19:14;;;;;;;14.77;10.90;;;9.90;99.90;;;;;;5042393;28;20182;-71
2021/10/19 02:21:40;;;;;;;13.87;10.03;;;9.90;99.90;;;;;;5042265;28;20280;-71
2021/10/19 02:24:06;;;;;;;16.93;10.67;;;9.90;99.90;;;;;;5043017;28;20173;-70
2021/10/19 02:26:32;;;;;;;17.67;13.47;;;9.90;99.90;;;;;;5039857;28;20178;-70
2021/10/19 02:28:57;;;;;;;17.97;11.57;;;9.90;99.90;;;;;;5037880;28;20490;-70
2021/10/19 02:31:23;;;;;;;18.33;13.13;;;10.00;99.90;;;;;;5043415;28;20197;-70
2021/10/19 02:33:49;;;;;;;15.00;11.10;;;10.00;99.90;;;;;;5041254;28;20215;-70
2021/10/19 02:36:14;;;;;;;15.50;11.10;;;10.00;99.90;;;;;;5041441;28;20189;-70
2021/10/19 02:38:40;;;;;;;17.53;11.50;;;10.00;99.90;;;;;;5040788;28;20300;-70
2021/10/19 02:41:05;;;;;;;16.47;10.70;;;10.00;99.90;;;;;;5040681;28;20224;-71
2021/10/19 02:43:31;;;;;;;14.90;10.90;;;10.00;99.90;;;;;;5038861;28;20181;-71
2021/10/19 02:45:57;;;;;;;15.13;10.97;;;10.00;99.90;;;;;;5042719;28;20655;-70
2021/10/19 02:48:22;;;;;;;18.23;11.47;;;10.10;99.90;;;;;;5040685;28;20264;-70
2021/10/19 02:50:48;;;;;;;15.03;11.30;;;10.00;99.90;;;;;;5040500;28;20223;-70
2021/10/19 02:53:13;;;;;;;13.23;9.80;;;10.00;99.90;;;;;;5041601;28;20181;-70
2021/10/19 02:55:40;;;;;;;13.60;10.97;;;10.00;99.90;;;;;;5041569;28;20215;-70
2021/10/19 02:58:06;;;;;;;15.37;9.70;;;10.10;99.90;;;;;;5037861;28;20641;-70
2021/10/19 03:00:32;;;;;;;16.77;10.90;;;10.10;99.90;;;;;;5036241;28;20487;-70
2021/10/19 03:02:57;;;;;;;14.60;11.30;;;10.00;99.90;;;;;;5040741;28;20180;-70
2021/10/19 03:05:23;;;;;;;11.50;9.93;;;10.10;99.90;;;;;;5040844;28;20181;-70
2021/10/19 03:07:49;;;;;;;14.47;10.60;;;10.10;99.90;;;;;;5038909;28;20181;-70
2021/10/19 03:10:14;;;;;;;14.47;10.70;;;10.10;99.90;;;;;;5040762;28;20210;-70
2021/10/19 03:12:40;;;;;;;15.67;10.80;;;10.10;99.90;;;;;;5040065;28;20193;-70
2021/10/19 03:15:06;;;;;;;23.53;13.80;;;10.10;99.90;;;;;;5040404;28;20258;-71
2021/10/19 03:17:32;;;;;;;15.17;10.17;;;10.10;99.90;;;;;;5038766;28;20177;-70
2021/10/19 03:19:58;;;;;;;14.67;11.27;;;10.10;99.90;;;;;;5040066;28;20734;-71
2021/10/19 03:22:23;;;;;;;17.67;11.30;;;10.10;99.90;;;;;;5041152;28;20186;-70
2021/10/19 03:24:49;;;;;;;15.00;11.40;;;10.10;99.90;;;;;;5039137;28;20204;-70
2021/10/19 03:27:14;;;;;;;18.43;12.67;;;10.20;99.90;;;;;;5038263;28;20648;-70
2021/10/19 03:29:41;;;;;;;15.80;10.70;;;10.20;99.90;;;;;;5041532;28;20251;-71
2021/10/19 03:32:06;;;;;;;17.80;12.23;;;10.10;99.90;;;;;;5037461;28;20190;-70
2021/10/19 03:34:32;;;;;;;15.87;11.30;;;10.10;99.90;;;;;;5041884;28;20463;-70
2021/10/19 03:36:58;;;;;;;18.40;12.00;;;10.10;99.90;;;;;;5038083;28;20277;-70
2021/10/19 03:39:24;;;;;;;18.80;12.50;;;10.20;99.90;;;;;;5042476;28;20645;-70
2021/10/19 03:41:49;;;;;;;15.67;11.67;;;10.20;99.90;;;;;;5037375;28;20185;-70
2021/10/19 03:44:15;;;;;;;18.17;13.70;;;10.20;99.90;;;;;;5041705;28;20209;-70
2021/10/19 03:46:41;;;;;;;18.27;13.23;;;10.30;99.90;;;;;;5037477;28;20181;-70
2021/10/19 03:49:06;;;;;;;17.60;12.67;;;10.20;99.90;;;;;;5040860;28;20186;-67
2021/10/19 03:51:32;;;;;;;17.40;12.47;;;10.30;99.90;;;;;;5037765;28;20255;-67
2021/10/19 03:53:58;;;;;;;19.90;12.30;;;10.30;99.90;;;;;;5041252;28;20192;-67
2021/10/19 03:56:24;;;;;;;17.40;12.37;;;10.30;99.90;;;;;;5036655;28;20201;-67
2021/10/19 03:58:49;;;;;;;21.93;14.00;;;10.30;99.90;;;;;;5037991;28;20600;-67
2021/10/19 04:01:16;;;;;;;18.37;11.53;;;10.30;99.90;;;;;;5040190;28;20515;-67
2021/10/19 04:03:42;;;;;;;17.23;12.33;;;10.30;99.90;;;;;;5036334;28;20189;-67
2021/10/19 04:06:08;;;;;;;19.40;12.77;;;10.40;99.90;;;;;;5037599;28;20490;-67
2021/10/19 04:08:34;;;;;;;19.10;12.40;;;10.40;99.90;;;;;;5034349;28;20474;-67
2021/10/19 04:11:00;;;;;;;15.20;11.70;;;10.40;99.90;;;;;;5038184;28;20505;-67
2021/10/19 04:13:25;;;;;;;14.47;11.37;;;10.40;99.90;;;;;;5039236;28;20189;-67
2021/10/19 04:15:51;;;;;;;11.87;10.10;;;10.40;99.90;;;;;;5038705;28;20533;-67
2021/10/19 04:18:17;;;;;;;16.40;11.50;;;10.40;99.90;;;;;;5031482;28;20239;-67
2021/10/19 04:20:42;;;;;;;14.93;12.17;;;10.40;99.90;;;;;;5038230;28;20173;-67
2021/10/19 04:23:08;;;;;;;17.37;12.23;;;10.40;99.90;;;;;;5039596;28;20178;-67
2021/10/19 04:25:33;;;;;;;18.20;13.50;;;10.40;99.90;;;;;;5039195;28;20263;-67
2021/10/19 04:27:59;;;;;;;18.97;11.90;;;10.40;99.90;;;;;;5034796;28;20231;-67
2021/10/19 04:30:25;;;;;;;15.37;11.20;;;10.50;99.90;;;;;;5037252;28;20181;-67
2021/10/19 04:32:50;;;;;;;12.30;10.33;;;10.50;99.90;;;;;;5040942;28;20501;-68
2021/10/19 04:35:16;;;;;;;15.10;11.00;;;10.50;99.90;;;;;;5035798;28;20209;-67
2021/10/19 04:37:42;;;;;;;14.90;11.70;;;10.50;99.90;;;;;;5042140;28;20268;-67
2021/10/19 04:40:08;;;;;;;15.50;11.67;;;10.50;99.90;;;;;;5041824;28;20212;-67
2021/10/19 04:42:37;;;;;;;15.60;11.07;;;10.50;99.90;;;;;;5044955;28;20185;-67
2021/10/19 04:45:04;;;;;;;18.70;11.20;;;10.50;99.90;;;;;;5043183;28;20518;-67
2021/10/19 04:47:29;;;;;;;15.17;11.93;;;10.50;99.90;;;;;;5041453;28;20505;-67
2021/10/19 04:49:58;;;;;;;16.27;11.80;;;10.50;99.90;;;;;;5040996;28;20522;-67
2021/10/19 04:52:24;;;;;;;14.97;11.30;;;10.60;99.90;;;;;;5041957;28;20166;-67
2021/10/19 04:54:49;;;;;;;18.40;12.00;;;10.60;99.90;;;;;;5043705;28;20520;-67
2021/10/19 04:57:15;;;;;;;14.60;11.57;;;10.60;99.90;;;;;;5041388;28;20897;-67
2021/10/19 04:59:40;;;;;;;15.70;10.90;;;10.60;99.90;;;;;;5044095;28;20178;-67
2021/10/19 05:02:06;;;;;;;14.93;11.47;;;10.60;99.90;;;;;;5040154;28;20178;-67
2021/10/19 05:04:32;;;;;;;15.90;11.70;;;10.60;99.90;;;;;;5039744;28;20181;-67
2021/10/19 05:06:57;;;;;;;14.90;11.20;;;10.60;99.90;;;;;;5038560;28;20771;-67
2021/10/19 05:09:23;;;;;;;19.93;13.70;;;10.60;99.90;;;;;;5044160;28;20174;-67
2021/10/19 05:11:48;;;;;;;15.00;11.07;;;10.70;99.90;;;;;;5042113;28;20186;-67
2021/10/19 05:14:14;;;;;;;16.07;11.37;;;10.70;99.90;;;;;;5039500;28;20217;-67
2021/10/19 05:16:40;;;;;;;20.20;12.77;;;10.70;99.90;;;;;;5042029;28;20252;-67
2021/10/19 05:19:05;;;;;;;17.13;12.23;;;10.70;99.90;;;;;;5042605;28;20323;-67
2021/10/19 05:21:31;;;;;;;15.27;11.23;;;10.70;99.90;;;;;;5043239;28;20471;-67
2021/10/19 05:23:57;;;;;;;16.70;11.70;;;10.70;99.90;;;;;;5042069;28;20177;-67
2021/10/19 05:26:22;;;;;;;21.07;12.10;;;10.70;99.90;;;;;;5041927;28;20170;-67
2021/10/19 05:28:48;;;;;;;14.50;11.40;;;10.80;99.90;;;;;;5041038;28;20321;-67
2021/10/19 05:31:14;;;;;;;15.97;10.77;;;10.80;99.90;;;;;;5043893;28;20170;-67
2021/10/19 05:33:39;;;;;;;16.97;12.40;;;10.80;99.90;;;;;;5044394;28;20165;-67
2021/10/19 05:36:05;;;;;;;17.00;11.67;;;10.80;99.90;;;;;;5045296;28;20193;-67
2021/10/19 05:38:33;;;;;;;13.73;10.50;;;10.80;99.90;;;;;;5040875;28;20173;-67
2021/10/19 05:40:59;;;;;;;17.00;11.30;;;10.80;99.90;;;;;;5043778;28;20192;-67
2021/10/19 05:43:25;;;;;;;16.50;13.20;;;10.80;99.90;;;;;;5044251;28;20775;-67
2021/10/19 05:45:51;;;;;;;16.27;11.60;;;10.80;99.90;;;;;;5042944;28;20431;-67
2021/10/19 05:48:16;;;;;;;16.80;11.70;;;10.80;99.90;;;;;;5041262;28;20181;-67
2021/10/19 05:50:42;;;;;;;13.93;11.17;;;10.90;99.90;;;;;;5043865;28;20265;-70
2021/10/19 05:53:07;;;;;;;15.90;11.07;;;10.90;99.90;;;;;;5040479;28;20192;-71
2021/10/19 05:55:33;;;;;;;15.77;10.63;;;10.90;99.90;;;;;;5043317;28;20551;-71
2021/10/19 05:57:59;;;;;;;18.10;12.67;;;10.90;99.90;;;;;;5042613;28;20178;-70
2021/10/19 06:00:25;;;;;;;16.43;13.10;;;10.90;99.90;;;;;;5042613;28;20220;-72
2021/10/19 06:02:50;;;;;;;16.47;13.20;;;10.90;99.90;;;;;;5038207;28;20182;-72
2021/10/19 06:05:16;;;;;;;16.67;13.47;;;11.00;99.90;;;;;;5041785;28;20235;-71
2021/10/19 06:07:41;;;;;;;19.07;12.67;;;11.00;99.90;;;;;;5044023;28;20177;-70
2021/10/19 06:10:07;;;;;;;13.93;11.27;;;11.00;99.90;;;;;;5042843;28;20679;-70
2021/10/19 06:12:33;;;;;;;17.90;12.30;;;11.00;99.90;;;;;;5043416;28;20196;-70
2021/10/19 06:14:59;;;;;;;17.27;12.23;;;11.00;99.90;;;;;;5042529;28;20546;-70
2021/10/19 06:17:24;;;;;;;17.30;12.43;;;11.00;99.90;;;;;;5044129;28;20182;-71
2021/10/19 06:19:50;;;;;;;14.73;11.07;;;11.00;99.90;;;;;;5044418;28;20179;-70
2021/10/19 06:22:16;;;;;;;16.40;11.90;;;11.10;99.90;;;;;;5043628;28;20186;-70
2021/10/19 06:24:41;;;;;;;15.30;11.90;;;11.10;99.90;;;;;;5042033;28;20569;-71
2021/10/19 06:27:08;;;;;;;17.67;12.50;;;11.10;99.90;;;;;;5041044;28;20208;-70
2021/10/19 06:29:33;;;;;;;14.20;11.37;;;11.10;99.90;;;;;;5041412;28;20181;-71
2021/10/19 06:31:59;;;;;;;15.73;11.83;;;11.10;99.90;;;;;;5040359;28;20504;-71
2021/10/19 06:34:24;;;;;;;17.80;11.83;;;11.20;99.90;;;;;;5036474;28;20617;-71
2021/10/19 06:36:50;;;;;;;16.00;11.77;;;11.20;99.90;;;;;;5037806;28;20564;-71
2021/10/19 06:39:16;;;;;;;19.40;13.23;;;11.20;99.90;;;;;;5039971;28;20182;-70
2021/10/19 06:41:41;;;;;;;18.83;13.43;;;11.20;99.90;;;;;;5038690;28;20311;-70
2021/10/19 06:44:07;;;;;;;20.80;12.87;;;11.30;99.90;;;;;;5041638;28;20589;-70
2021/10/19 06:46:32;;;;;;;16.87;12.67;;;11.30;99.90;;;;;;5041966;28;20166;-70
2021/10/19 06:48:58;;;;;;;16.30;12.63;;;11.30;99.90;;;;;;5035949;28;20178;-71
2021/10/19 06:51:24;;;;;;;17.63;12.33;;;11.30;99.90;;;;;;5041481;28;20177;-70
2021/10/19 06:53:49;;;;;;;18.90;12.00;;;11.40;99.90;;;;;;5038777;28;20938;-70
2021/10/19 06:56:15;;;;;;;15.30;11.80;;;11.50;99.90;;;;;;5039070;28;20205;-70
2021/10/19 06:58:41;;;;;;;14.43;11.77;;;11.50;99.90;;;;;;5033815;28;20190;-71
2021/10/19 07:01:07;;;;;;;20.43;12.77;;;11.50;99.90;;;;;;5037402;28;20430;-71
2021/10/19 07:03:33;;;;;;;16.57;12.27;;;11.60;99.90;;;;;;5037640;28;20216;-71
2021/10/19 07:06:05;;;;;;;17.20;12.07;;;11.60;99.90;;;;;;5037414;28;20186;-71
2021/10/19 07:08:33;;;;;;;15.20;11.50;;;11.70;99.90;;;;;;5036829;28;20415;-71
2021/10/19 07:10:59;;;;;;;15.60;12.10;;;11.70;99.90;;;;;;5036943;28;20441;-79
2021/10/19 07:13:25;;;;;;;17.57;12.50;;;11.70;99.90;;;;;;5035379;28;20436;-69
2021/10/19 07:15:55;;;;;;;16.73;11.57;;;11.80;99.90;;;;;;5037175;28;20460;-69
2021/10/19 07:18:22;;;;;;;17.27;13.53;;;11.90;99.90;;;;;;5042650;28;20180;-69
2021/10/19 07:20:49;;;;;;;14.70;12.87;;;12.00;99.90;;;;;;5041237;28;20396;-69
2021/10/19 07:23:15;;;;;;;21.40;13.67;;;12.10;99.90;;;;;;5039414;28;20431;-69
2021/10/19 07:25:41;;;;;;;15.73;12.20;;;12.20;99.90;;;;;;5039219;28;20786;-69
2021/10/19 07:28:07;;;;;;;18.00;12.80;;;12.30;99.90;;;;;;5041454;28;20446;-69
2021/10/19 07:30:33;;;;;;;16.03;12.20;;;12.30;99.90;;;;;;5038972;28;20431;-69
2021/10/19 07:33:01;;;;;;;16.10;12.43;;;12.40;99.90;;;;;;5039087;28;20264;-69
2021/10/19 07:35:27;;;;;;;17.50;12.17;;;12.50;99.90;;;;;;5038793;28;20197;-69
2021/10/19 07:37:53;;;;;;;17.43;12.50;;;12.50;99.90;;;;;;5035071;28;20438;-69
2021/10/19 07:40:20;;;;;;;14.70;11.30;;;12.50;99.90;;;;;;5041352;28;20216;-69
2021/10/19 07:42:48;;;;;;;14.20;11.60;;;12.60;99.90;;;;;;5041226;28;20196;-69
2021/10/19 07:45:14;;;;;;;11.70;9.93;;;12.70;99.90;;;;;;5037843;28;20767;-69
2021/10/19 07:47:44;;;;;;;13.43;10.90;;;12.70;99.90;;;;;;5039061;28;20434;-69
2021/10/19 07:50:12;;;;;;;13.53;11.27;;;12.70;99.90;;;;;;5040370;28;20558;-69
2021/10/19 07:52:39;;;;;;;18.10;12.10;;;12.80;99.90;;;;;;5039474;28;20455;-69
2021/10/19 07:55:05;;;;;;;13.67;11.33;;;12.90;99.90;;;;;;5037132;28;20472;-69
2021/10/19 07:57:31;;;;;;;14.70;11.23;;;12.90;99.90;;;;;;5039150;28;20459;-69
2021/10/19 07:59:57;;;;;;;18.57;12.00;;;12.90;99.90;;;;;;5041501;28;20835;-69
2021/10/19 08:02:22;;;;;;;12.50;10.63;;;13.00;99.90;;;;;;5040270;28;20181;-69
2021/10/19 08:04:48;;;;;;;15.40;12.13;;;13.00;99.90;;;;;;5041305;28;20181;-69
2021/10/19 08:07:14;;;;;;;16.63;11.53;;;13.00;99.90;;;;;;5038499;28;20525;-69
2021/10/19 08:09:39;;;;;;;14.20;11.90;;;13.10;99.90;;;;;;5040562;28;20178;-69
2021/10/19 08:12:05;;;;;;;13.63;11.53;;;13.20;99.90;;;;;;5042810;28;20287;-69
2021/10/19 08:14:31;;;;;;;16.43;12.73;;;13.20;99.90;;;;;;5040777;28;20728;-69
2021/10/19 08:16:56;;;;;;;16.30;12.67;;;13.30;99.90;;;;;;5040260;28;20169;-69
2021/10/19 08:19:23;;;;;;;12.80;11.43;;;13.40;99.90;;;;;;5040629;28;20289;-69
2021/10/19 08:21:49;;;;;;;14.20;10.70;;;13.40;99.90;;;;;;5042834;28;20516;-69
2021/10/19 08:24:15;;;;;;;14.07;11.67;;;13.50;99.90;;;;;;5039403;28;20419;-69
2021/10/19 08:26:40;;;;;;;13.30;11.40;;;13.50;99.90;;;;;;5038830;28;20182;-69
2021/10/19 08:29:06;;;;;;;13.83;11.03;;;13.60;99.90;;;;;;5040271;28;20591;-69
2021/10/19 08:31:32;;;;;;;14.30;11.20;;;13.60;99.90;;;;;;5040284;28;20706;-69
2021/10/19 08:33:59;;;;;;;14.93;10.90;;;13.70;99.90;;;;;;5039692;28;20170;-69
2021/10/19 08:36:24;;;;;;;12.00;10.33;;;13.80;99.90;;;;;;5040548;28;20464;-69
2021/10/19 08:38:50;;;;;;;15.43;12.10;;;13.80;99.90;;;;;;5039271;28;20432;-69
2021/10/19 08:41:17;;;;;;;15.20;12.07;;;13.80;99.90;;;;;;5040420;28;20848;-69
2021/10/19 08:43:44;;;;;;;14.50;11.93;;;13.80;99.90;;;;;;5040510;28;20913;-69
2021/10/19 08:46:15;;;;;;;11.10;9.93;;;13.80;99.90;;;;;;5039979;28;20507;-69
2021/10/19 08:48:41;;;;;;;15.83;11.70;;;13.80;99.90;;;;;;5038264;28;20428;-69
2021/10/19 08:51:08;;;;;;;14.30;10.03;;;13.90;99.90;;;;;;5040798;28;20422;-69
2021/10/19 08:53:38;;;;;;;13.43;10.90;;;13.90;99.90;;;;;;5037784;28;20431;-69
2021/10/19 08:56:05;;;;;;;14.60;11.40;;;13.90;99.90;;;;;;5037646;28;20972;-69
2021/10/19 08:58:32;;;;;;;12.00;10.63;;;13.90;99.90;;;;;;5036918;28;20464;-69
2021/10/19 09:01:09;;;;;;;15.57;12.40;;;13.80;99.90;;;;;;5038193;28;20420;-69
2021/10/19 09:03:34;;;;;;;15.93;11.50;;;13.80;99.90;;;;;;5036159;28;20420;-69
2021/10/19 09:06:01;;;;;;;11.23;10.13;;;13.80;99.90;;;;;;5039219;28;21004;-69
2021/10/19 09:08:27;;;;;;;12.50;9.90;;;13.90;99.90;;;;;;5040275;28;20471;-69
2021/10/19 09:10:54;;;;;;;12.40;10.83;;;13.90;99.90;;;;;;5038636;28;20348;-69
2021/10/19 09:13:21;;;;;;;12.73;11.13;;;14.00;99.90;;;;;;5040747;28;20181;-69
2021/10/19 09:15:49;;;;;;;13.10;10.50;;;14.00;99.90;;;;;;5040368;28;20952;-69
2021/10/19 09:18:20;;;;;;;11.70;9.60;;;14.10;99.90;;;;;;5039832;28;20909;-69
2021/10/19 09:20:54;;;;;;;14.20;10.40;;;14.10;99.90;;;;;;5039976;28;20408;-69
2021/10/19 09:23:24;;;;;;;11.00;9.90;;;14.10;99.90;;;;;;5042076;28;20412;-68
2021/10/19 09:25:52;;;;;;;14.10;10.50;;;14.10;99.90;;;;;;5043563;28;20546;-68
2021/10/19 09:28:39;;;;;;;13.63;10.30;;;14.20;99.90;;;;;;5042691;28;20467;-68
2021/10/19 09:31:06;;;;;;;12.87;11.10;;;14.20;99.90;;;;;;5043159;28;20778;-69
2021/10/19 09:33:32;;;;;;;12.37;9.40;;;14.20;99.90;;;;;;5042746;28;20420;-69
2021/10/19 09:35:59;;;;;;;13.80;10.33;;;14.20;99.90;;;;;;5040362;28;20466;-69
2021/10/19 09:38:26;;;;;;;10.83;9.60;;;14.20;99.90;;;;;;5040495;28;20190;-69
2021/10/19 09:40:56;;;;;;;11.27;8.73;;;14.30;99.90;;;;;;5044099;28;20766;-69
2021/10/19 09:43:26;;;;;;;12.90;10.57;;;14.30;99.90;;;;;;5043200;28;20418;-69
2021/10/19 09:45:56;;;;;;;13.30;10.10;;;14.30;99.90;;;;;;5042062;28;20806;-69
2021/10/19 09:48:33;;;;;;;12.00;10.03;;;14.30;99.90;;;;;;5043613;28;20431;-69
2021/10/19 09:51:00;;;;;;;12.97;10.50;;;14.40;99.90;;;;;;5043740;28;20414;-69
2021/10/19 09:53:27;;;;;;;12.23;10.60;;;14.50;99.90;;;;;;5040351;28;20442;-69
2021/10/19 09:55:55;;;;;;;12.43;9.23;;;14.60;99.90;;;;;;5040493;28;20798;-69
2021/10/19 09:58:24;;;;;;;12.70;9.87;;;14.70;99.90;;;;;;5041223;28;20435;-69
2021/10/19 10:00:51;;;;;;;15.67;10.53;;;14.70;99.90;;;;;;5040499;28;20435;-69
2021/10/19 10:03:17;;;;;;;12.80;9.43;;;14.70;99.90;;;;;;5043467;28;20432;-69
2021/10/19 10:05:43;;;;;;;11.57;9.43;;;14.70;99.90;;;;;;5043109;28;20442;-69
2021/10/19 10:08:18;;;;;;;17.23;10.83;;;14.80;99.90;;;;;;5041292;28;20439;-69
2021/10/19 10:10:44;;;;;;;10.53;8.50;;;14.90;99.90;;;;;;5042465;28;20185;-69
2021/10/19 10:13:15;;;;;;;13.50;9.17;;;15.00;99.90;;;;;;5039676;28;20897;-69
2021/10/19 10:15:41;;;;;;;9.17;8.23;;;15.10;99.90;;;;;;5042029;28;20201;-69
2021/10/19 10:18:09;;;;;;;12.77;9.40;;;15.10;99.90;;;;;;5041778;28;20527;-69
2021/10/19 10:20:43;;;;;;;10.07;8.80;;;15.20;99.90;;;;;;5043493;28;20514;-69
2021/10/19 10:23:22;;;;;;;11.10;8.83;;;15.20;99.90;;;;;;5043840;28;20498;-69
2021/10/19 10:25:53;;;;;;;12.10;9.03;;;15.30;99.90;;;;;;5041949;28;20435;-69
2021/10/19 10:28:31;;;;;;;10.30;8.50;;;15.40;99.90;;;;;;5038931;28;20434;-69
2021/10/19 10:30:59;;;;;;;11.50;9.33;;;15.50;99.90;;;;;;5042528;28;20428;-69
2021/10/19 10:33:39;;;;;;;11.30;8.23;;;15.50;99.90;;;;;;5041752;28;20424;-69
2021/10/19 10:36:10;;;;;;;11.40;8.50;;;15.70;99.90;;;;;;5039283;28;20446;-69
2021/10/19 10:38:38;;;;;;;10.60;9.03;;;15.70;99.90;;;;;;5042117;28;20439;-69
2021/10/19 10:41:15;;;;;;;13.13;8.83;;;15.70;99.90;;;;;;5037064;28;20432;-69
2021/10/19 10:43:43;;;;;;;11.03;9.27;;;15.70;99.90;;;;;;5040014;28;20423;-69
2021/10/19 10:46:14;;;;;;;12.40;8.60;;;15.70;99.90;;;;;;5040103;28;20427;-69
2021/10/19 10:48:40;;;;;;;9.70;8.27;;;15.70;99.90;;;;;;5040315;28;20424;-69
2021/10/19 10:51:07;;;;;;;9.93;8.60;;;15.70;99.90;;;;;;5041048;28;20940;-69
2021/10/19 10:53:36;;;;;;;11.50;8.20;;;15.60;99.90;;;;;;5042080;28;20945;-69
2021/10/19 10:56:03;;;;;;;9.97;8.67;;;15.50;99.90;;;;;;5040213;28;20467;-69
2021/10/19 10:58:32;;;;;;;9.80;8.73;;;15.50;99.90;;;;;;5038062;28;20512;-69
2021/10/19 11:01:00;;;;;;;11.63;8.40;;;15.40;99.90;;;;;;5039652;28;20423;-70
2021/10/19 11:03:26;;;;;;;10.53;7.70;;;15.40;99.90;;;;;;5037855;28;20437;-70
2021/10/19 11:05:57;;;;;;;10.63;8.27;;;15.30;99.90;;;;;;5037095;28;20502;-69
2021/10/19 11:08:31;;;;;;;12.40;9.30;;;15.20;99.90;;;;;;5036652;28;20433;-69
2021/10/19 11:11:14;;;;;;;9.87;7.80;;;15.20;99.90;;;;;;5037109;28;20434;-69
2021/10/19 11:13:57;;;;;;;8.43;7.63;;;15.20;99.90;;;;;;5040670;28;20480;-69
2021/10/19 11:16:47;;;;;;;9.10;8.20;;;15.20;99.90;;;;;;5038293;28;20503;-69
2021/10/19 11:19:15;;;;;;;7.30;6.60;;;15.20;99.90;;;;;;5031871;28;20925;-69
2021/10/19 11:21:42;;;;;;;7.83;7.03;;;15.20;99.90;;;;;;5040456;28;20841;-69
2021/10/19 11:24:08;;;;;;;11.37;8.80;;;15.20;99.90;;;;;;5038414;28;20424;-69
2021/10/19 11:26:34;;;;;;;10.10;7.90;;;15.20;99.90;;;;;;5037455;28;20437;-69
2021/10/19 11:29:00;;;;;;;10.40;8.17;;;15.20;99.90;;;;;;5036372;28;20576;-70
2021/10/19 11:31:28;;;;;;;11.00;8.90;;;15.20;99.90;;;;;;5035192;28;20432;-70
2021/10/19 11:33:55;;;;;;;8.37;7.47;;;15.20;99.90;;;;;;5037643;28;20445;-70
2021/10/19 11:36:21;;;;;;;8.93;8.03;;;15.20;99.90;;;;;;5037838;28;20492;-70
2021/10/19 11:38:50;;;;;;;8.17;7.33;;;15.20;99.90;;;;;;5037785;28;20477;-69
2021/10/19 11:41:18;;;;;;;11.37;9.00;;;15.10;99.90;;;;;;5035621;28;20461;-69
2021/10/19 11:43:47;;;;;;;9.90;8.57;;;15.10;99.90;;;;;;5038736;28;20446;-69
2021/10/19 11:46:16;;;;;;;15.83;10.80;;;15.10;99.90;;;;;;5033943;28;20765;-69
2021/10/19 11:48:42;;;;;;;11.87;9.20;;;15.10;99.90;;;;;;5035849;28;20424;-69
2021/10/19 11:51:13;;;;;;;10.87;8.80;;;15.00;99.90;;;;;;5040174;28;20481;-69
2021/10/19 11:53:41;;;;;;;13.17;9.00;;;15.00;99.90;;;;;;5037977;28;20462;-70
2021/10/19 11:56:09;;;;;;;9.73;8.70;;;15.00;99.90;;;;;;5038109;28;20456;-69
2021/10/19 11:58:35;;;;;;;9.57;8.57;;;15.10;99.90;;;;;;5034594;28;20832;-69
2021/10/19 12:01:01;;;;;;;13.20;9.00;;;15.10;99.90;;;;;;5022806;28;20534;-69
2021/10/19 12:03:32;;;;;;;12.00;10.40;;;15.10;99.90;;;;;;5037368;28;20223;-69
2021/10/19 12:05:59;;;;;;;12.67;9.50;;;15.10;99.90;;;;;;5035867;28;20447;-69
2021/10/19 12:08:32;;;;;;;11.93;10.70;;;15.10;99.90;;;;;;5038409;28;20431;-69
2021/10/19 12:11:08;;;;;;;15.83;12.63;;;15.00;99.90;;;;;;5038310;28;20847;-69
2021/10/19 12:13:34;;;;;;;12.70;10.63;;;15.00;99.90;;;;;;5038490;28;20498;-69
2021/10/19 12:16:00;;;;;;;10.67;9.30;;;15.00;99.90;;;;;;5040716;28;20456;-69
2021/10/19 12:18:27;;;;;;;13.87;8.97;;;15.00;99.90;;;;;;5039049;28;20177;-69
2021/10/19 12:20:52;;;;;;;11.60;10.40;;;15.00;99.90;;;;;;5039616;28;20932;-69
2021/10/19 12:23:19;;;;;;;9.87;8.87;;;15.10;99.90;;;;;;5036664;28;20436;-69
2021/10/19 12:25:50;;;;;;;9.90;8.90;;;15.20;99.90;;;;;;5035380;28;20174;-69
2021/10/19 12:28:27;;;;;;;10.00;8.97;;;15.10;99.90;;;;;;5036813;28;20509;-69
2021/10/19 12:30:58;;;;;;;11.77;9.60;;;15.20;99.90;;;;;;5037693;28;20431;-69